Etusivu
METAR-TAF:

METAR-TAF

Lentoasemat :

Molden lentoasema

Molde, Norja

Leveyspiiri: 62-45N, Pituuspiiri: 007-16E, korkeus merenpinnasta: 0 m

Tämänhetkinen sää

Tämä raportti tehtiin 14 minuuttia sitten, kello 04.50 UTC
Tuuli 26 kn lännestä
Lämpötila 10°C
Kosteus 87%
Ilmanpaine 996 hPa
Näkyvyys 10 km tai enemmän
Muutamia pilviä 500 ft:n korkeudessa
Hajonneita pilviä 3000 ft:n korkeudessa
sadetta

METAR: ENML 260450Z 26026KT 9999 RA FEW005 BKN030 10/08 Q0996

Aika: 07:04 (05:04 UTC)

Sääennuste

Tämä raportti tehtiin 12 tuntia ja 4 minuuttia sitten, kello 17.00 UTC
Ennuste voimassa 25. päivästä klo 18 UTC - 25. päivään klo 22 UTC
Tuuli 12 kn lännestä/lounaasta
Näkyvyys 10 km tai enemmän
Muutamia pilviä 2000 ft:n korkeudessa
Hajonneita pilviä 4000 ft:n korkeudessa
heikkoa sadetta
Ajoittain
25. päivästä klo 18 UTC - 25. päivään klo 22 UTC
sadetta

TAF: ENML 251700Z 2518/2522 24012KT 9999 -RA FEW020 BKN040 TEMPO 2518/2522 RA

Säähavainnot ja -ennusteet yli 4000 lentoasemalta (METAR- ja TAF-raportit).

Käytössä olevat sääasemat on merkitty karttaan keltaisilla ja punaisilla pisteillä.

Aseta hiiri pisteen päälle nähdäksesi sääaseman nimen.

Klikkaa sitten nähdäksesi säähavainnot ja -ennusteet.

Kartan vaihtaminen: klikkaa mustalla rastilla varustettuja vihreitä pisteitä, niin voit zoomata sisään; viivalla varustettua vihreää pistettä, niin voit zoomata ulos tai vihreitä nuolia, niin pääset viereisille kartoille.


METAR-TAF: